Time;durP1;ratioP1;P1;durP2;ratioP2;P2;SDS_P1;SDS_P2;PMS_P1;PMS_P2;Temp;Humidity;BMP_temperature;BMP_pressure;BME280_temperature;BME280_humidity;BME280_pressure;Samples;Min_cycle;Max_cycle;Signal;HPM_P1;HPM_P2
2022/09/30 00:01:24;;;;;;;;;33.75;31.75;;;;;;;;5054274;28;45390;-72
2022/09/30 00:03:49;;;;;;;;;32.25;32.00;;;;;;;;5058131;28;45492;-72
2022/09/30 00:06:14;;;;;;;;;34.00;29.75;;;;;;;;5051567;28;45154;-72
2022/09/30 00:08:40;;;;;;;;;31.25;31.25;;;;;;;;5058027;28;45583;-73
2022/09/30 00:11:20;;;;;;;;;31.00;28.25;;;;;;;;5052128;28;45663;-72
2022/09/30 00:13:46;;;;;;;;;35.25;31.75;;;;;;;;5059147;28;46364;-72
2022/09/30 00:16:12;;;;;;;;;34.25;30.00;;;;;;;;5052970;28;45770;-72
2022/09/30 00:18:37;;;;;;;;;31.75;30.25;;;;;;;;5059701;28;45628;-72
2022/09/30 00:21:03;;;;;;;;;36.50;31.75;;;;;;;;5055780;28;45228;-72
2022/09/30 00:23:28;;;;;;;;;38.00;31.75;;;;;;;;5060407;28;45604;-72
2022/09/30 00:25:57;;;;;;;;;31.00;29.75;;;;;;;;5058605;28;45417;-72
2022/09/30 00:28:22;;;;;;;;;34.75;30.00;;;;;;;;5060215;27;45261;-73
2022/09/30 00:30:47;;;;;;;;;25.00;20.00;;;;;;;;5051439;28;45435;-72
2022/09/30 00:33:12;;;;;;;;;31.50;29.50;;;;;;;;5052968;28;45487;-73
2022/09/30 00:35:38;;;;;;;;;35.25;30.25;;;;;;;;5049052;28;45424;-72
2022/09/30 00:38:03;;;;;;;;;33.50;29.25;;;;;;;;5056278;28;45439;-73
2022/09/30 00:40:29;;;;;;;;;28.00;25.50;;;;;;;;5045131;28;45237;-73
2022/09/30 00:42:54;;;;;;;;;27.50;27.50;;;;;;;;5058752;28;46083;-72
2022/09/30 00:45:20;;;;;;;;;29.00;26.50;;;;;;;;5046387;28;45272;-72
2022/09/30 00:47:48;;;;;;;;;29.25;26.50;;;;;;;;5053599;28;45398;-72
2022/09/30 00:50:14;;;;;;;;;27.75;26.25;;;;;;;;5049697;28;45601;-72
2022/09/30 00:52:40;;;;;;;;;30.50;29.00;;;;;;;;5053919;28;45962;-72
2022/09/30 00:55:08;;;;;;;;;28.00;27.50;;;;;;;;5054191;28;45256;-72
2022/09/30 00:57:34;;;;;;;;;31.25;27.00;;;;;;;;5056037;28;45267;-72
2022/09/30 01:00:00;;;;;;;;;27.75;25.50;;;;;;;;5057537;28;45453;-72
2022/09/30 01:02:25;;;;;;;;;26.00;25.50;;;;;;;;5057556;28;45347;-72
2022/09/30 01:04:51;;;;;;;;;22.50;21.25;;;;;;;;5058154;28;45309;-72
2022/09/30 01:07:16;;;;;;;;;26.75;25.25;;;;;;;;5054461;28;45273;-72
2022/09/30 01:09:42;;;;;;;;;25.75;22.50;;;;;;;;5048723;28;45291;-72
2022/09/30 01:12:10;;;;;;;;;26.00;24.00;;;;;;;;5050552;28;47292;-72
2022/09/30 01:14:36;;;;;;;;;24.75;24.75;;;;;;;;5049830;28;45406;-72
2022/09/30 01:17:05;;;;;;;;;25.50;23.50;;;;;;;;5058704;28;45230;-72
2022/09/30 01:19:51;;;;;;;;;28.00;28.00;;;;;;;;5050139;28;45233;-72
2022/09/30 01:22:16;;;;;;;;;24.75;20.00;;;;;;;;5053820;28;45512;-72
2022/09/30 01:24:54;;;;;;;;;27.75;27.00;;;;;;;;5053020;28;45422;-72
2022/09/30 01:27:39;;;;;;;;;22.25;21.00;;;;;;;;5055295;28;45272;-72
2022/09/30 01:30:14;;;;;;;;;30.50;25.00;;;;;;;;5026590;28;46343;-72
2022/09/30 01:32:52;;;;;;;;;27.50;25.00;;;;;;;;5056299;28;45440;-72
2022/09/30 01:35:20;;;;;;;;;25.75;24.00;;;;;;;;5058104;28;45932;-72
2022/09/30 01:37:51;;;;;;;;;27.00;26.00;;;;;;;;5057521;28;45470;-72
2022/09/30 01:40:24;;;;;;;;;26.25;21.75;;;;;;;;5057980;28;46271;-72
2022/09/30 01:43:09;;;;;;;;;27.50;20.75;;;;;;;;5056287;28;46636;-72
2022/09/30 01:45:55;;;;;;;;;27.75;25.00;;;;;;;;5068838;28;45255;-72
2022/09/30 01:48:34;;;;;;;;;21.00;21.00;;;;;;;;5049284;28;45450;-72
2022/09/30 01:51:09;;;;;;;;;27.00;26.25;;;;;;;;5050779;28;45276;-73
2022/09/30 01:53:34;;;;;;;;;28.25;24.75;;;;;;;;5055970;28;45421;-73
2022/09/30 01:56:04;;;;;;;;;22.00;22.00;;;;;;;;5058666;28;45263;-72
2022/09/30 01:58:41;;;;;;;;;22.25;22.00;;;;;;;;5057498;28;45285;-72
2022/09/30 02:01:10;;;;;;;;;25.25;20.00;;;;;;;;5056450;28;45472;-72
2022/09/30 02:03:38;;;;;;;;;24.25;21.50;;;;;;;;5053413;28;45308;-72
2022/09/30 02:06:06;;;;;;;;;33.25;28.00;;;;;;;;5053677;28;45268;-72
2022/09/30 02:08:38;;;;;;;;;27.00;25.25;;;;;;;;5052841;28;45481;-72
2022/09/30 02:11:07;;;;;;;;;26.50;26.50;;;;;;;;5058341;28;45229;-72
2022/09/30 02:13:33;;;;;;;;;25.50;22.50;;;;;;;;5055695;28;46383;-72
2022/09/30 02:16:01;;;;;;;;;26.50;20.75;;;;;;;;5057715;28;45347;-72
2022/09/30 02:18:39;;;;;;;;;23.25;20.75;;;;;;;;5054763;28;45441;-72
2022/09/30 02:21:06;;;;;;;;;26.75;22.75;;;;;;;;5055162;28;45568;-72
2022/09/30 02:23:34;;;;;;;;;22.75;22.75;;;;;;;;5055396;28;46473;-72
2022/09/30 02:26:24;;;;;;;;;29.50;23.75;;;;;;;;5047248;28;45327;-72
2022/09/30 02:28:56;;;;;;;;;24.25;24.25;;;;;;;;5053262;28;45426;-72
2022/09/30 02:31:22;;;;;;;;;26.00;25.25;;;;;;;;5051997;28;45472;-72
2022/09/30 02:34:01;;;;;;;;;25.75;21.00;;;;;;;;5049963;28;45217;-72
2022/09/30 02:36:49;;;;;;;;;22.25;20.25;;;;;;;;5054356;28;45190;-72
2022/09/30 02:39:32;;;;;;;;;29.25;26.50;;;;;;;;5049095;28;45255;-72
2022/09/30 02:42:01;;;;;;;;;26.00;23.75;;;;;;;;5055794;28;45483;-72
2022/09/30 02:44:26;;;;;;;;;16.75;16.75;;;;;;;;5053861;28;45410;-72
2022/09/30 02:47:10;;;;;;;;;25.50;24.25;;;;;;;;5057209;28;45403;-72
2022/09/30 02:49:38;;;;;;;;;24.00;22.75;;;;;;;;5044660;28;45348;-72
2022/09/30 02:52:14;;;;;;;;;25.25;22.00;;;;;;;;5070513;28;46592;-72
2022/09/30 02:54:58;;;;;;;;;24.50;20.25;;;;;;;;5049356;28;45316;-72
2022/09/30 02:57:36;;;;;;;;;23.50;16.25;;;;;;;;5053369;28;45561;-72
2022/09/30 03:00:01;;;;;;;;;21.75;18.75;;;;;;;;5042108;28;45447;-72
2022/09/30 03:02:27;;;;;;;;;20.50;19.50;;;;;;;;5056008;28;45434;-72
2022/09/30 03:04:52;;;;;;;;;25.00;19.50;;;;;;;;5073013;28;46385;-73
2022/09/30 03:07:17;;;;;;;;;26.75;24.75;;;;;;;;5056114;28;45425;-72
2022/09/30 03:09:42;;;;;;;;;25.25;25.25;;;;;;;;5054400;28;45327;-72
2022/09/30 03:12:26;;;;;;;;;27.00;24.25;;;;;;;;5055966;28;45413;-72
2022/09/30 03:14:51;;;;;;;;;24.50;23.00;;;;;;;;5050387;28;45177;-71
2022/09/30 03:17:32;;;;;;;;;23.75;19.00;;;;;;;;5055143;28;45247;-73
2022/09/30 03:20:00;;;;;;;;;23.00;20.25;;;;;;;;5054576;28;45576;-73
2022/09/30 03:22:31;;;;;;;;;23.00;19.00;;;;;;;;5057226;28;45483;-72
2022/09/30 03:25:05;;;;;;;;;23.75;23.75;;;;;;;;5052944;28;46415;-72
2022/09/30 03:27:39;;;;;;;;;26.00;24.25;;;;;;;;5054831;28;45874;-71
2022/09/30 03:30:06;;;;;;;;;25.00;22.50;;;;;;;;5061694;28;45260;-71
2022/09/30 03:32:37;;;;;;;;;24.00;24.00;;;;;;;;5060917;28;45399;-72
2022/09/30 03:35:03;;;;;;;;;25.00;24.00;;;;;;;;5047251;28;46564;-71
2022/09/30 03:37:44;;;;;;;;;28.50;25.00;;;;;;;;5046500;28;45359;-72
2022/09/30 03:40:27;;;;;;;;;22.50;21.50;;;;;;;;5045077;28;44739;-73
2022/09/30 03:42:59;;;;;;;;;23.00;20.00;;;;;;;;5056324;28;46129;-73
2022/09/30 03:45:24;;;;;;;;;26.50;23.00;;;;;;;;5046651;28;45343;-73
2022/09/30 03:47:52;;;;;;;;;24.00;23.00;;;;;;;;5058902;28;45928;-73
2022/09/30 03:50:19;;;;;;;;;24.00;21.75;;;;;;;;5049017;28;45295;-73
2022/09/30 03:52:44;;;;;;;;;23.25;19.75;;;;;;;;5058675;28;47502;-73
2022/09/30 03:55:10;;;;;;;;;23.50;21.00;;;;;;;;5053157;28;45406;-73
2022/09/30 03:57:36;;;;;;;;;24.00;21.25;;;;;;;;5058065;28;45539;-73
2022/09/30 04:00:01;;;;;;;;;23.00;20.00;;;;;;;;5057141;28;45452;-72
2022/09/30 04:02:27;;;;;;;;;25.25;21.00;;;;;;;;5059917;28;45189;-72
2022/09/30 04:04:52;;;;;;;;;21.50;19.25;;;;;;;;5059938;28;46419;-73
2022/09/30 04:07:18;;;;;;;;;15.00;15.00;;;;;;;;5059590;28;45474;-72
2022/09/30 04:09:43;;;;;;;;;21.25;21.25;;;;;;;;5057293;28;45396;-73
2022/09/30 04:12:08;;;;;;;;;25.75;24.00;;;;;;;;5058841;28;45384;-72
2022/09/30 04:14:34;;;;;;;;;28.00;23.00;;;;;;;;5054719;28;46182;-72
2022/09/30 04:16:59;;;;;;;;;26.75;25.50;;;;;;;;5056516;28;45375;-73
2022/09/30 04:19:24;;;;;;;;;25.25;22.00;;;;;;;;5058375;28;45292;-72
2022/09/30 04:21:50;;;;;;;;;27.00;20.75;;;;;;;;5058092;28;45245;-72
2022/09/30 04:24:16;;;;;;;;;29.25;23.25;;;;;;;;5058199;28;45791;-72
2022/09/30 04:26:41;;;;;;;;;21.25;19.75;;;;;;;;5058977;28;45414;-73
2022/09/30 04:29:06;;;;;;;;;21.75;18.25;;;;;;;;5060115;28;45220;-73
2022/09/30 04:31:31;;;;;;;;;28.25;23.25;;;;;;;;5059202;28;45570;-73
2022/09/30 04:33:56;;;;;;;;;21.00;19.00;;;;;;;;5057409;28;46746;-72
2022/09/30 04:36:22;;;;;;;;;21.50;21.50;;;;;;;;5059201;28;45394;-72
2022/09/30 04:38:47;;;;;;;;;23.50;22.00;;;;;;;;5059955;28;45346;-74
2022/09/30 04:41:16;;;;;;;;;23.75;22.00;;;;;;;;5058384;28;45287;-73
2022/09/30 04:43:45;;;;;;;;;22.75;22.00;;;;;;;;5059549;28;46180;-73
2022/09/30 04:46:11;;;;;;;;;21.25;21.25;;;;;;;;5059910;27;45468;-72
2022/09/30 04:48:36;;;;;;;;;18.75;16.50;;;;;;;;5059418;28;45975;-72
2022/09/30 04:51:01;;;;;;;;;21.00;16.50;;;;;;;;5059000;28;45414;-72
2022/09/30 04:53:27;;;;;;;;;26.25;23.50;;;;;;;;5059448;28;46466;-72
2022/09/30 04:55:57;;;;;;;;;21.00;17.00;;;;;;;;5059024;28;45308;-73
2022/09/30 04:58:23;;;;;;;;;25.00;21.25;;;;;;;;5060093;28;45232;-73
2022/09/30 05:00:48;;;;;;;;;28.25;20.50;;;;;;;;5058807;28;45301;-72
2022/09/30 05:03:13;;;;;;;;;21.50;20.50;;;;;;;;5059109;28;45296;-72
2022/09/30 05:05:42;;;;;;;;;18.00;18.00;;;;;;;;5059729;28;45323;-71
2022/09/30 05:08:08;;;;;;;;;28.00;23.00;;;;;;;;5054004;28;45233;-72
2022/09/30 05:10:33;;;;;;;;;23.50;22.00;;;;;;;;5050430;28;45540;-71
2022/09/30 05:12:58;;;;;;;;;21.00;18.75;;;;;;;;5056624;28;46062;-72
2022/09/30 05:15:24;;;;;;;;;27.50;23.50;;;;;;;;5053615;28;45279;-71
2022/09/30 05:17:49;;;;;;;;;22.50;19.50;;;;;;;;5056883;28;45237;-71
2022/09/30 05:20:15;;;;;;;;;22.00;22.00;;;;;;;;5055362;28;45220;-72
2022/09/30 05:22:40;;;;;;;;;18.50;18.50;;;;;;;;5055489;28;45315;-72
2022/09/30 05:25:06;;;;;;;;;20.25;18.50;;;;;;;;5057195;28;45358;-74
2022/09/30 05:27:31;;;;;;;;;26.50;21.00;;;;;;;;5057463;28;45328;-72
2022/09/30 05:29:56;;;;;;;;;22.50;21.50;;;;;;;;5058146;28;45268;-72
2022/09/30 05:32:23;;;;;;;;;20.25;18.00;;;;;;;;5057053;28;46425;-73
2022/09/30 05:34:49;;;;;;;;;20.25;18.50;;;;;;;;5056762;28;45430;-72
2022/09/30 05:37:14;;;;;;;;;19.50;19.25;;;;;;;;5053982;28;45361;-73
2022/09/30 05:39:39;;;;;;;;;21.75;21.75;;;;;;;;5057137;28;45776;-72
2022/09/30 05:42:04;;;;;;;;;23.50;22.75;;;;;;;;5057270;28;45314;-72
2022/09/30 05:44:30;;;;;;;;;28.75;22.25;;;;;;;;5052306;28;45296;-73
2022/09/30 05:46:55;;;;;;;;;26.75;21.25;;;;;;;;5054964;28;45347;-73
2022/09/30 05:49:20;;;;;;;;;27.75;24.25;;;;;;;;5057821;28;45319;-73
2022/09/30 05:51:46;;;;;;;;;28.50;22.25;;;;;;;;5058708;28;46212;-70
2022/09/30 05:54:12;;;;;;;;;27.25;25.50;;;;;;;;5056576;28;45330;-73
2022/09/30 05:56:37;;;;;;;;;24.75;23.00;;;;;;;;5058060;28;45334;-73
2022/09/30 05:59:03;;;;;;;;;23.00;23.00;;;;;;;;5053592;28;45253;-72
2022/09/30 06:01:28;;;;;;;;;30.25;24.25;;;;;;;;5051464;28;45363;-72
2022/09/30 06:03:54;;;;;;;;;25.75;23.00;;;;;;;;5052942;28;45276;-73
2022/09/30 06:06:20;;;;;;;;;24.00;21.50;;;;;;;;5055285;28;45398;-73
2022/09/30 06:08:45;;;;;;;;;28.25;25.50;;;;;;;;5058674;28;45678;-73
2022/09/30 06:11:12;;;;;;;;;21.75;21.50;;;;;;;;5053400;28;45418;-73
2022/09/30 06:13:38;;;;;;;;;36.50;33.00;;;;;;;;5053837;28;45323;-73
2022/09/30 06:16:04;;;;;;;;;39.00;31.25;;;;;;;;5057110;28;45457;-73
2022/09/30 06:18:29;;;;;;;;;22.50;22.25;;;;;;;;5057990;28;45387;-73
2022/09/30 06:20:55;;;;;;;;;23.00;21.50;;;;;;;;5057633;28;46333;-73
2022/09/30 06:23:20;;;;;;;;;27.00;25.25;;;;;;;;5058351;28;45307;-73
2022/09/30 06:25:48;;;;;;;;;29.00;29.00;;;;;;;;5058151;28;45323;-73
2022/09/30 06:28:14;;;;;;;;;29.75;23.75;;;;;;;;5050695;28;45245;-73
2022/09/30 06:30:39;;;;;;;;;31.50;28.00;;;;;;;;5056571;28;46521;-73
2022/09/30 06:33:04;;;;;;;;;26.00;19.50;;;;;;;;5058792;27;45349;-73
2022/09/30 06:35:29;;;;;;;;;23.75;22.75;;;;;;;;5058338;28;45513;-73
2022/09/30 06:37:54;;;;;;;;;29.50;28.50;;;;;;;;5055373;28;45453;-73
2022/09/30 06:40:20;;;;;;;;;25.25;25.25;;;;;;;;5040571;28;45170;-74
2022/09/30 06:42:46;;;;;;;;;23.75;23.25;;;;;;;;5056244;28;45312;-73
2022/09/30 06:45:12;;;;;;;;;29.00;24.75;;;;;;;;5058531;28;45563;-73
2022/09/30 06:47:37;;;;;;;;;30.00;26.50;;;;;;;;5055649;28;45252;-74
2022/09/30 06:50:02;;;;;;;;;28.25;25.25;;;;;;;;5057046;28;46067;-73
2022/09/30 06:52:28;;;;;;;;;29.25;26.50;;;;;;;;5056964;28;45311;-72
2022/09/30 06:54:55;;;;;;;;;35.00;32.50;;;;;;;;5058602;28;45533;-72
2022/09/30 06:57:23;;;;;;;;;35.25;30.50;;;;;;;;5088118;27;46230;-72
2022/09/30 06:59:49;;;;;;;;;40.75;35.75;;;;;;;;5061477;28;46182;-73
2022/09/30 07:02:14;;;;;;;;;32.50;29.50;;;;;;;;5057219;28;45280;-72
2022/09/30 07:04:40;;;;;;;;;29.00;26.75;;;;;;;;5056886;28;45446;-73
2022/09/30 07:07:06;;;;;;;;;32.25;28.00;;;;;;;;5057326;28;45533;-72
2022/09/30 07:09:31;;;;;;;;;30.00;29.75;;;;;;;;5054644;28;46253;-72
2022/09/30 07:11:56;;;;;;;;;34.75;30.50;;;;;;;;5053400;28;45311;-72
2022/09/30 07:14:22;;;;;;;;;22.25;19.50;;;;;;;;5065940;28;45546;-72
2022/09/30 07:16:49;;;;;;;;;32.75;29.25;;;;;;;;5057406;28;46289;-73
2022/09/30 07:19:16;;;;;;;;;30.50;27.50;;;;;;;;5055007;28;45407;-72
2022/09/30 07:21:41;;;;;;;;;32.25;28.25;;;;;;;;5061991;28;45422;-72
2022/09/30 07:24:08;;;;;;;;;33.50;28.00;;;;;;;;5048279;28;45299;-72
2022/09/30 07:26:33;;;;;;;;;31.75;26.25;;;;;;;;5054174;28;45260;-73
2022/09/30 07:28:59;;;;;;;;;30.50;28.25;;;;;;;;5051607;28;47291;-73
2022/09/30 07:31:24;;;;;;;;;36.25;33.25;;;;;;;;5056223;28;45340;-72
2022/09/30 07:33:50;;;;;;;;;34.75;32.00;;;;;;;;5060171;28;45469;-72
2022/09/30 07:36:17;;;;;;;;;36.50;34.50;;;;;;;;5061291;28;45272;-72
2022/09/30 07:38:43;;;;;;;;;40.25;33.00;;;;;;;;5056132;28;45364;-73
2022/09/30 07:41:10;;;;;;;;;34.50;32.25;;;;;;;;5056518;28;45447;-72
2022/09/30 07:43:39;;;;;;;;;35.75;32.75;;;;;;;;5059391;28;45560;-72
2022/09/30 07:46:11;;;;;;;;;36.50;33.50;;;;;;;;5059002;28;45407;-73
2022/09/30 07:48:45;;;;;;;;;39.75;35.50;;;;;;;;5056006;28;46539;-73
2022/09/30 07:51:15;;;;;;;;;37.75;33.50;;;;;;;;5047860;28;45403;-73
2022/09/30 07:53:41;;;;;;;;;33.25;27.75;;;;;;;;5057260;28;45317;-73
2022/09/30 07:56:07;;;;;;;;;40.00;33.00;;;;;;;;5049437;28;45245;-73
2022/09/30 07:58:32;;;;;;;;;37.25;34.00;;;;;;;;5057556;28;45467;-72
2022/09/30 08:00:57;;;;;;;;;34.25;32.25;;;;;;;;5059787;28;45219;-73
2022/09/30 08:03:23;;;;;;;;;30.25;27.50;;;;;;;;5060164;28;45295;-73
2022/09/30 08:05:48;;;;;;;;;38.25;33.25;;;;;;;;5059881;28;45255;-73
2022/09/30 08:08:14;;;;;;;;;44.75;37.50;;;;;;;;5060904;28;45585;-73
2022/09/30 08:10:40;;;;;;;;;48.50;37.25;;;;;;;;5060054;28;45557;-73
2022/09/30 08:13:05;;;;;;;;;35.50;33.00;;;;;;;;5060719;28;45249;-73
2022/09/30 08:15:30;;;;;;;;;31.25;26.25;;;;;;;;5056945;28;45430;-73
2022/09/30 08:17:56;;;;;;;;;28.75;26.00;;;;;;;;5059178;28;45497;-73
2022/09/30 08:20:21;;;;;;;;;38.75;34.00;;;;;;;;5060060;28;45280;-73
2022/09/30 08:22:46;;;;;;;;;32.25;31.75;;;;;;;;5057985;28;45391;-73
2022/09/30 08:25:11;;;;;;;;;32.00;29.75;;;;;;;;5060123;28;45294;-73
2022/09/30 08:27:37;;;;;;;;;29.00;24.50;;;;;;;;5059318;28;46475;-73
2022/09/30 08:30:02;;;;;;;;;36.25;26.50;;;;;;;;5058357;28;45225;-73
2022/09/30 08:32:31;;;;;;;;;27.75;26.75;;;;;;;;5059445;28;45521;-73
2022/09/30 08:34:56;;;;;;;;;29.25;27.00;;;;;;;;5059462;28;45297;-73
2022/09/30 08:37:22;;;;;;;;;29.75;28.50;;;;;;;;5059310;28;45285;-73
2022/09/30 08:39:48;;;;;;;;;34.75;31.00;;;;;;;;5057400;28;45378;-73
2022/09/30 08:42:28;;;;;;;;;31.75;28.50;;;;;;;;5058553;28;45170;-73
2022/09/30 08:45:02;;;;;;;;;27.00;25.00;;;;;;;;5059132;28;45775;-73
2022/09/30 08:47:40;;;;;;;;;29.50;26.75;;;;;;;;5058446;28;47460;-72
2022/09/30 08:50:17;;;;;;;;;35.00;30.00;;;;;;;;5047967;28;45324;-72
2022/09/30 08:52:44;;;;;;;;;30.75;26.75;;;;;;;;5057332;28;45412;-72
2022/09/30 08:55:14;;;;;;;;;26.00;25.00;;;;;;;;5052479;28;45378;-71
2022/09/30 08:57:42;;;;;;;;;33.25;28.75;;;;;;;;5055998;28;45382;-73
2022/09/30 09:00:11;;;;;;;;;28.75;27.50;;;;;;;;5040453;28;45546;-73
2022/09/30 09:02:43;;;;;;;;;42.50;34.00;;;;;;;;5054605;28;44733;-73
2022/09/30 09:05:27;;;;;;;;;26.75;26.75;;;;;;;;5055224;28;45408;-72
2022/09/30 09:07:57;;;;;;;;;30.75;28.75;;;;;;;;5058050;28;45253;-72
2022/09/30 09:10:23;;;;;;;;;31.00;26.75;;;;;;;;5059049;28;45814;-72
2022/09/30 09:12:51;;;;;;;;;39.50;34.25;;;;;;;;5058642;28;45384;-72
2022/09/30 09:15:31;;;;;;;;;34.75;31.00;;;;;;;;5059263;28;45501;-72
2022/09/30 09:18:16;;;;;;;;;34.00;30.25;;;;;;;;5058622;28;47458;-72
2022/09/30 09:20:46;;;;;;;;;33.75;32.00;;;;;;;;5056635;28;45599;-72
2022/09/30 09:23:12;;;;;;;;;35.00;33.00;;;;;;;;5058736;28;45482;-73
2022/09/30 09:25:38;;;;;;;;;34.25;30.75;;;;;;;;5058144;28;45283;-72
2022/09/30 09:28:12;;;;;;;;;31.75;27.75;;;;;;;;5058513;28;45986;-72
2022/09/30 09:30:42;;;;;;;;;34.25;32.25;;;;;;;;5058607;28;45209;-71
2022/09/30 09:33:30;;;;;;;;;32.00;29.00;;;;;;;;5058262;28;45581;-68
2022/09/30 09:36:11;;;;;;;;;38.00;30.50;;;;;;;;5049630;28;45410;-68
2022/09/30 09:38:39;;;;;;;;;29.50;26.50;;;;;;;;5058637;28;45517;-68
2022/09/30 09:41:11;;;;;;;;;37.25;32.00;;;;;;;;5057921;28;45658;-68
2022/09/30 09:43:57;;;;;;;;;32.25;29.25;;;;;;;;5058750;28;45456;-68
2022/09/30 09:46:43;;;;;;;;;29.75;25.75;;;;;;;;5055996;28;45506;-68
2022/09/30 09:49:22;;;;;;;;;26.25;25.25;;;;;;;;5057312;28;45463;-68
2022/09/30 09:52:06;;;;;;;;;30.25;29.25;;;;;;;;5058444;28;45328;-69
2022/09/30 09:54:36;;;;;;;;;27.00;25.25;;;;;;;;5059075;28;45452;-69
2022/09/30 09:57:08;;;;;;;;;25.00;24.00;;;;;;;;5058225;28;45437;-68
2022/09/30 09:59:33;;;;;;;;;22.33;21.67;;;;;;;;5058718;28;46416;-68
2022/09/30 10:01:59;;;;;;;;;24.33;23.33;;;;;;;;5058305;28;45730;-68
2022/09/30 10:04:29;;;;;;;;;22.00;20.33;;;;;;;;5058793;28;45331;-68
2022/09/30 10:06:58;;;;;;;;;21.67;20.67;;;;;;;;5058085;28;45220;-70
2022/09/30 10:09:26;;;;;;;;;18.50;17.50;;;;;;;;5058360;28;45607;-70
2022/09/30 10:12:12;;;;;;;;;20.33;16.00;;;;;;;;5056406;28;45311;-68
2022/09/30 10:14:46;;;;;;;;;19.00;18.00;;;;;;;;5058618;28;45399;-68
2022/09/30 10:17:28;;;;;;;;;22.00;19.67;;;;;;;;5057946;28;45485;-68
2022/09/30 10:19:58;;;;;;;;;15.33;15.00;;;;;;;;5058291;28;46174;-69
2022/09/30 10:22:26;;;;;;;;;18.33;13.67;;;;;;;;5056819;28;45487;-68
2022/09/30 10:25:07;;;;;;;;;20.00;18.00;;;;;;;;5058182;28;46217;-70
2022/09/30 10:27:33;;;;;;;;;16.00;13.67;;;;;;;;5056362;28;46106;-70
2022/09/30 10:29:59;;;;;;;;;15.67;15.33;;;;;;;;5058150;28;46208;-70
2022/09/30 10:32:24;;;;;;;;;13.00;13.00;;;;;;;;5057836;28;45305;-70
2022/09/30 10:34:53;;;;;;;;;13.00;12.50;;;;;;;;5058311;28;45271;-70
2022/09/30 10:37:20;;;;;;;;;20.00;17.00;;;;;;;;5058101;28;45453;-70
2022/09/30 10:40:00;;;;;;;;;19.33;17.67;;;;;;;;5061554;28;45388;-70
2022/09/30 10:42:30;;;;;;;;;16.67;16.67;;;;;;;;5060922;28;45254;-69
2022/09/30 10:44:55;;;;;;;;;19.00;15.67;;;;;;;;5062228;28;45343;-70
2022/09/30 10:47:22;;;;;;;;;14.33;11.00;;;;;;;;5061401;28;45299;-70
2022/09/30 10:49:55;;;;;;;;;14.33;14.00;;;;;;;;5061527;28;45483;-68
2022/09/30 10:52:25;;;;;;;;;10.67;8.67;;;;;;;;5059887;28;46070;-71
2022/09/30 10:54:52;;;;;;;;;9.67;9.67;;;;;;;;5061850;28;45417;-69
2022/09/30 10:57:34;;;;;;;;;5.33;5.33;;;;;;;;5060841;28;45550;-68
2022/09/30 11:00:00;;;;;;;;;6.00;6.00;;;;;;;;5060507;28;45659;-68
2022/09/30 11:02:33;;;;;;;;;7.00;5.67;;;;;;;;5060239;28;45346;-69
2022/09/30 11:05:25;;;;;;;;;6.67;6.67;;;;;;;;5061511;28;45342;-69
2022/09/30 11:08:02;;;;;;;;;5.00;4.33;;;;;;;;5058704;27;45375;-71
2022/09/30 11:10:46;;;;;;;;;7.33;7.00;;;;;;;;5061205;28;45334;-71
2022/09/30 11:13:17;;;;;;;;;6.00;4.67;;;;;;;;5061056;28;45453;-71
2022/09/30 11:16:03;;;;;;;;;5.00;5.00;;;;;;;;5061160;28;45372;-71
2022/09/30 11:18:36;;;;;;;;;5.33;5.33;;;;;;;;5048336;28;46876;-71
2022/09/30 11:21:05;;;;;;;;;5.00;5.00;;;;;;;;5060869;28;45287;-71
2022/09/30 11:23:35;;;;;;;;;6.67;6.67;;;;;;;;5061358;28;45280;-71
2022/09/30 11:26:04;;;;;;;;;4.67;4.67;;;;;;;;5060868;28;45429;-71
2022/09/30 11:28:33;;;;;;;;;5.00;5.00;;;;;;;;5058163;28;45452;-69
2022/09/30 11:31:04;;;;;;;;;4.00;4.00;;;;;;;;5044948;28;46954;-69
2022/09/30 11:33:48;;;;;;;;;5.00;4.50;;;;;;;;5060188;28;45407;-71
2022/09/30 11:36:19;;;;;;;;;4.75;4.75;;;;;;;;5060318;28;45172;-70
2022/09/30 11:38:52;;;;;;;;;5.25;5.25;;;;;;;;5060929;28;45557;-71
2022/09/30 11:41:27;;;;;;;;;4.25;4.25;;;;;;;;5060166;28;45546;-71
2022/09/30 11:44:11;;;;;;;;;4.50;2.75;;;;;;;;5060858;28;45737;-70
2022/09/30 11:49:39;;;;;;;;;4.00;4.00;;;;;;;;5059411;28;45368;-71
2022/09/30 12:04:22;;;;;;;;;4.50;4.50;;;;;;;;5058213;28;45276;-69
2022/09/30 12:07:06;;;;;;;;;3.75;3.75;;;;;;;;5053110;28;46261;-69
2022/09/30 12:09:36;;;;;;;;;4.00;4.00;;;;;;;;5058081;28;45340;-69
2022/09/30 12:15:09;;;;;;;;;6.75;6.25;;;;;;;;5057578;28;45879;-68
2022/09/30 12:17:44;;;;;;;;;6.00;4.75;;;;;;;;5060148;28;45458;-69
2022/09/30 12:20:15;;;;;;;;;4.75;4.75;;;;;;;;5060757;28;45264;-69
2022/09/30 12:22:43;;;;;;;;;2.75;2.75;;;;;;;;5059441;28;45383;-69
2022/09/30 12:25:30;;;;;;;;;3.00;2.75;;;;;;;;5059922;28;45367;-69
2022/09/30 12:27:59;;;;;;;;;3.50;3.50;;;;;;;;5058238;28;45506;-69
2022/09/30 12:30:28;;;;;;;;;4.00;4.00;;;;;;;;5060684;28;45510;-69
2022/09/30 12:33:12;;;;;;;;;5.00;5.00;;;;;;;;5058037;28;47685;-70
2022/09/30 12:35:46;;;;;;;;;3.50;3.50;;;;;;;;5059849;28;46372;-69
2022/09/30 12:38:27;;;;;;;;;3.00;3.00;;;;;;;;5060176;28;45363;-69
2022/09/30 12:41:01;;;;;;;;;2.00;2.00;;;;;;;;5059609;28;45236;-69
2022/09/30 12:43:29;;;;;;;;;2.25;2.25;;;;;;;;5060066;28;45420;-69
2022/09/30 12:45:54;;;;;;;;;6.25;3.50;;;;;;;;5059829;28;45449;-70
2022/09/30 12:48:22;;;;;;;;;2.25;2.00;;;;;;;;5060069;28;45544;-69
2022/09/30 12:50:49;;;;;;;;;2.00;2.00;;;;;;;;5059735;28;45335;-69
2022/09/30 12:53:20;;;;;;;;;2.75;2.75;;;;;;;;5059947;28;45359;-69
2022/09/30 12:55:45;;;;;;;;;3.00;3.00;;;;;;;;5058134;28;47284;-70
2022/09/30 12:58:19;;;;;;;;;4.75;4.75;;;;;;;;5059899;28;45287;-69
2022/09/30 13:00:59;;;;;;;;;3.00;2.00;;;;;;;;5057636;28;45411;-69
2022/09/30 13:03:25;;;;;;;;;17.00;15.67;;;;;;;;5056498;27;45236;-69
2022/09/30 13:05:51;;;;;;;;;2.25;2.00;;;;;;;;5056172;28;45411;-69
2022/09/30 13:08:19;;;;;;;;;2.00;2.00;;;;;;;;5052469;28;45248;-69
2022/09/30 13:10:46;;;;;;;;;1.25;1.25;;;;;;;;5055700;28;45336;-70
2022/09/30 13:13:22;;;;;;;;;3.00;3.00;;;;;;;;5056732;28;45498;-71
2022/09/30 13:15:48;;;;;;;;;2.25;2.25;;;;;;;;5057053;28;45288;-71
2022/09/30 13:18:19;;;;;;;;;1.25;1.25;;;;;;;;5057574;28;45530;-70
2022/09/30 13:20:53;;;;;;;;;3.00;3.00;;;;;;;;5059103;28;45281;-71
2022/09/30 13:23:44;;;;;;;;;2.00;2.00;;;;;;;;5052836;28;45462;-71
2022/09/30 13:26:28;;;;;;;;;2.75;2.75;;;;;;;;5048415;28;47552;-71
2022/09/30 13:28:59;;;;;;;;;2.25;2.25;;;;;;;;5052176;28;45328;-72
2022/09/30 13:31:27;;;;;;;;;1.25;1.25;;;;;;;;5050957;28;45306;-71
2022/09/30 13:34:01;;;;;;;;;1.75;1.75;;;;;;;;5057937;28;45525;-72
2022/09/30 13:36:40;;;;;;;;;3.75;2.00;;;;;;;;5054448;28;45386;-71
2022/09/30 13:39:20;;;;;;;;;4.00;2.50;;;;;;;;5046916;28;45425;-71
2022/09/30 13:41:53;;;;;;;;;4.50;3.00;;;;;;;;5049990;28;45550;-71
2022/09/30 13:44:20;;;;;;;;;3.33;2.00;;;;;;;;5051672;28;45364;-71
2022/09/30 13:46:48;;;;;;;;;2.00;2.00;;;;;;;;5054755;28;46661;-71
2022/09/30 13:49:38;;;;;;;;;3.67;2.33;;;;;;;;5054545;28;45360;-72
2022/09/30 13:52:06;;;;;;;;;4.33;1.67;;;;;;;;5055218;28;45645;-71
2022/09/30 13:54:36;;;;;;;;;3.00;3.00;;;;;;;;5047097;28;45422;-72
2022/09/30 13:57:03;;;;;;;;;3.33;2.67;;;;;;;;5084806;27;47706;-72
2022/09/30 13:59:46;;;;;;;;;3.00;3.00;;;;;;;;5048352;28;45277;-72
2022/09/30 14:02:14;;;;;;;;;2.33;2.00;;;;;;;;5057708;28;45169;-72
2022/09/30 14:04:48;;;;;;;;;2.67;2.67;;;;;;;;5057500;28;46888;-72
2022/09/30 14:07:19;;;;;;;;;3.00;2.00;;;;;;;;5055860;28;46245;-72
2022/09/30 14:10:03;;;;;;;;;3.00;2.33;;;;;;;;5055499;28;45301;-72
2022/09/30 14:12:36;;;;;;;;;4.00;3.00;;;;;;;;5054749;28;45302;-72
2022/09/30 14:15:21;;;;;;;;;1.00;1.00;;;;;;;;5043543;28;45289;-72
2022/09/30 14:17:58;;;;;;;;;3.33;2.67;;;;;;;;5056001;28;45479;-72
2022/09/30 14:20:37;;;;;;;;;1.67;1.67;;;;;;;;5043887;28;45277;-71
2022/09/30 14:23:02;;;;;;;;;1.67;1.67;;;;;;;;5057933;28;45304;-72
2022/09/30 14:25:32;;;;;;;;;0.67;0.67;;;;;;;;5046092;28;45223;-72
2022/09/30 14:28:07;;;;;;;;;1.00;1.00;;;;;;;;5057910;28;46098;-72
2022/09/30 14:30:37;;;;;;;;;1.67;1.67;;;;;;;;5046732;28;45476;-74
2022/09/30 14:33:10;;;;;;;;;2.67;2.67;;;;;;;;5084346;27;45486;-74
2022/09/30 14:35:40;;;;;;;;;2.67;1.67;;;;;;;;5087091;27;46855;-72
2022/09/30 14:38:11;;;;;;;;;2.33;1.67;;;;;;;;5053886;28;45968;-72
2022/09/30 14:40:39;;;;;;;;;2.00;2.00;;;;;;;;5052117;28;45425;-71
2022/09/30 14:43:06;;;;;;;;;1.67;1.67;;;;;;;;5057133;28;45558;-70
2022/09/30 14:45:34;;;;;;;;;2.67;2.67;;;;;;;;5057069;28;45497;-69
2022/09/30 14:48:14;;;;;;;;;2.67;2.67;;;;;;;;5054208;28;45309;-70
2022/09/30 14:50:49;;;;;;;;;2.67;2.67;;;;;;;;5057526;28;45380;-69
2022/09/30 14:53:24;;;;;;;;;3.33;3.33;;;;;;;;5058358;28;45288;-69
2022/09/30 14:55:49;;;;;;;;;3.00;3.00;;;;;;;;5057532;28;45752;-69
2022/09/30 14:58:22;;;;;;;;;3.00;3.00;;;;;;;;5057861;28;45648;-69